Relevés horaires Matro (Suisse)


Relevés horaires à Matro - Samedi 15 Janv. 2022
Heure UTC1 Température [°C] Vent [km/h] Hum. [%] Pres.4 [hPa] Visi. [Km] Nébu. [octa] Préc.5 [mm] Cond.
2m. Res. Ros. Dir.2 Vit. Moy. Raf.3
23:00 2.4 0.9 -9.1 ENE 5.6 -- 9.3 42 850(0.8/3h) -- -- -- --
22:00 2.2 -0.5 -10.7 E 9.3 -- 11.1 38 850(-0.2/3h) -- -- -- --
21:00 2.4 0.3 -10.7 ESE 7.4 -- 16.7 37 850(0.1/3h) -- -- -- --
20:00 2.8 -0.2 -10.9 SSE 11.1 -- 13.0 36 850(0.7/3h) -- -- -- --
19:00 2.8 0.7 -10.4 S 7.4 -- 16.7 37 850(0.0/3h) -- -- -- --
18:00 2.9 -0.1 -9.6 S 11.1 -- 22.2 39 850(-0.1/3h) -- -- -- --
17:00 3.3 -0.3 -10.2 SSE 14.8 -- 16.7 36 850(-0.4/3h) -- -- -- --
16:00 3.9 1.1 -10.3 SE 11.1 -- 16.7 35 850(-0.5/3h) -- -- -- --
15:00 5.0 2.4 -10.3 SSE 11.1 -- 22.2 32 850(-0.8/3h) -- -- -- --
14:00 5.7 3.3 -9.2 S 11.1 -- 22.2 33 850(-1.0/3h) -- -- -- --
13:00 6.0 3.3 -10.8 SSE 13.0 -- 20.4 29 850(-0.9/3h) -- -- -- --
12:00 6.5 3.9 -8.9 SSE 13.0 -- 20.4 32 850(-0.4/3h) -- -- -- --
11:00 6.3 4 -9.6 SSE 11.1 -- 18.5 31 850(0.2/3h) -- -- -- --
10:00 5.9 4.3 -9.7 SSE 7.4 -- 13.0 32 850(0.3/3h) -- -- -- --
09:00 5.8 4.8 -11.2 S 5.6 -- 9.3 28 850(0.0/3h) -- -- -- --
08:00 5.7 5.7 -12.8 O 3.7 -- 5.6 25 850(-0.2/3h) -- -- -- --
07:00 5.3 4.2 -12.9 NNO 5.6 -- 9.3 25 850(-0.4/3h) -- -- -- --
06:00 5.3 4.2 -13.2 NNO 5.6 -- 31.5 25 850(-0.8/3h) -- -- -- --
05:00 5.3 3.6 -13.0 NNO 7.4 -- 13.0 25 850(-1.1/3h) -- -- -- --
04:00 5.4 4.3 -12.7 NNO 5.6 -- 13.0 26 850(-1.2/3h) -- -- -- --
03:00 5.5 2.7 -12.5 NO 13.0 -- 31.5 26 850(-1.0/3h) -- -- -- --
02:00 5.4 1.8 -11.8 NO 18.5 -- 27.8 28 850(-1.0/3h) -- -- -- --
01:00 5.1 0.9 -11.5 NO 22.2 -- 31.5 29 850(-0.8/3h) -- -- -- --
00:00 5.2 0.7 -10.6 NNO 25.9 -- 42.6 31 850(-0.7/3h) -- -- -- --

1 Coordinated Universal Time. Actuellement il est 08:00 locale et 06:00 UTC.

2 Le vent souffle depuis la direction indiquée vers la direction oposée.

3 Les rafales max. sont disponible 40 min après l'heure du relevé.

4 Pour les stations d'altitude (plus de 600m) le géopotentiel du niveau le plus proche de la pression obligatoire est indiqué.

5 Les stations disposant d'un diffuseur peuvent indiquer "trace". Cela signifie que des précipitations ont touchés le sol mais que la quantité est inférieure à 0.1 mm.

Copyright

Les données affichées sur cette page sont la propriété exclusive de Météo Suisse.

Récapitulatif de la journée
Température [°C] Vent [km/h] Ensoleillement4 [h] Precipitations totale5 [mm] Pression [Hpa]
Min1 Max.2 Moy.3 Max. Min Max.
5.1 6.6 0 42.6 8 h 6 min 0 850.0 850.0

1 Température minimale relevée entre 18:00 UTC la veille et 18:00 UTC le jour donné.

2 Température maximale relevée entre 06:00 UTC le jour donné et 06:00 UTC le lendemain.

3 Vent moyen de la journée basé sur les relevés horaires.

4 Ensoleillement en heures relevé entre 06:00 UTC la veille et 06:00 UTC le jour donné.

5 Précipitations totales tombées entre 06:00 UTC la jour donné et 06:00 UTC le lendemain.

Graphiques horaires